createdAt,value
2022-09-26T00:04:16.730Z,9.33
2022-09-26T00:09:19.351Z,9.37
2022-09-26T00:14:25.262Z,9.33
2022-09-26T00:19:27.797Z,9.39
2022-09-26T00:24:31.006Z,9.38
2022-09-26T00:29:34.868Z,9.40
2022-09-26T00:34:37.492Z,9.45
2022-09-26T00:39:40.084Z,9.46
2022-09-26T00:44:46.899Z,9.37
2022-09-26T00:49:50.815Z,9.42
2022-09-26T00:54:55.784Z,9.41
2022-09-26T01:00:02.589Z,9.34
2022-09-26T01:05:06.804Z,9.28
2022-09-26T01:10:10.362Z,9.24
2022-09-26T01:15:15.651Z,9.28
2022-09-26T01:20:35.122Z,9.17
2022-09-26T01:26:00.026Z,9.14
2022-09-26T01:31:12.668Z,9.06
2022-09-26T01:36:44.887Z,9.03
2022-09-26T01:41:54.185Z,9.11
2022-09-26T01:47:00.307Z,9.10
2022-09-26T01:52:06.738Z,9.14
2022-09-26T01:57:11.531Z,9.16
2022-09-26T02:02:20.091Z,9.12
2022-09-26T02:07:25.967Z,9.31
2022-09-26T02:12:32.761Z,9.29
2022-09-26T02:17:39.373Z,9.28
2022-09-26T02:22:42.695Z,9.32
2022-09-26T02:27:45.307Z,9.41
2022-09-26T02:32:49.503Z,9.39
2022-09-26T02:37:52.422Z,9.43
2022-09-26T02:43:02.763Z,9.39
2022-09-26T02:48:25.525Z,9.42
2022-09-26T02:53:47.094Z,9.49
2022-09-26T02:58:59.515Z,9.52
2022-09-26T03:04:09.479Z,9.43
2022-09-26T03:09:13.437Z,9.46
2022-09-26T03:14:17.400Z,9.52
2022-09-26T03:19:27.487Z,9.47
2022-09-26T03:24:30.208Z,9.36
2022-09-26T03:29:34.246Z,9.33
2022-09-26T03:34:39.837Z,9.49
2022-09-26T03:39:42.631Z,9.46
2022-09-26T03:45:17.380Z,9.47
2022-09-26T03:50:50.346Z,9.38
2022-09-26T03:55:53.068Z,9.33
2022-09-26T04:00:55.812Z,9.32
2022-09-26T04:05:59.857Z,9.45
2022-09-26T04:11:03.647Z,9.38
2022-09-26T04:16:07.510Z,9.53
2022-09-26T04:21:14.029Z,9.50
2022-09-26T04:26:23.447Z,9.51
2022-09-26T04:31:28.456Z,9.49
2022-09-26T04:36:39.606Z,9.50
2022-09-26T04:41:42.234Z,9.58
2022-09-26T04:46:45.037Z,9.49
2022-09-26T04:51:49.787Z,9.67
2022-09-26T04:56:52.619Z,9.65
2022-09-26T05:01:56.177Z,9.64
2022-09-26T05:07:14.183Z,9.68
2022-09-26T05:12:18.110Z,9.64
2022-09-26T05:17:24.219Z,9.61
2022-09-26T05:22:32.540Z,9.71
2022-09-26T05:27:35.569Z,9.71
2022-09-26T05:32:39.077Z,9.64
2022-09-26T05:37:43.111Z,9.69
2022-09-26T05:42:47.191Z,9.77
2022-09-26T05:47:49.940Z,9.73
2022-09-26T05:52:57.949Z,9.74
2022-09-26T05:58:01.221Z,9.79
2022-09-26T06:03:27.752Z,9.88
2022-09-26T06:08:43.965Z,9.96
2022-09-26T06:14:08.193Z,9.97
2022-09-26T06:19:10.900Z,10.04
2022-09-26T06:24:15.190Z,10.11
2022-09-26T06:29:18.899Z,10.17
2022-09-26T06:34:22.697Z,10.18
2022-09-26T06:39:35.464Z,10.23
2022-09-26T06:44:38.143Z,10.37
2022-09-26T06:49:50.464Z,10.27
2022-09-26T06:55:08.434Z,10.29
2022-09-26T07:00:12.732Z,10.42
2022-09-26T07:05:55.487Z,10.55
2022-09-26T07:11:21.247Z,10.80
2022-09-26T07:16:24.654Z,10.78
2022-09-26T07:21:34.656Z,10.80
2022-09-26T07:26:47.120Z,10.85
2022-09-26T07:31:49.916Z,11.17
2022-09-26T07:37:13.004Z,11.62
2022-09-26T07:42:17.264Z,11.81
2022-09-26T07:47:37.573Z,12.02
2022-09-26T07:52:47.425Z,12.08
2022-09-26T07:57:59.194Z,12.31
2022-09-26T08:03:11.959Z,12.47
2022-09-26T08:08:15.220Z,12.29
2022-09-26T08:13:39.427Z,12.43
2022-09-26T08:19:01.632Z,12.67
2022-09-26T08:24:04.863Z,12.55
2022-09-26T08:29:12.356Z,12.49
2022-09-26T08:34:16.057Z,12.58
2022-09-26T08:39:23.170Z,12.54
2022-09-26T08:45:02.409Z,12.60
2022-09-26T08:50:21.865Z,12.57
2022-09-26T08:55:26.916Z,12.71
2022-09-26T09:00:33.309Z,12.67
2022-09-26T09:05:43.686Z,12.79
2022-09-26T09:10:48.287Z,12.71
2022-09-26T09:16:12.096Z,12.66
2022-09-26T09:21:42.612Z,12.57
2022-09-26T09:32:41.918Z,12.58
2022-09-26T09:37:53.478Z,12.48
2022-09-26T09:43:15.261Z,12.50
2022-09-26T09:48:19.786Z,12.36
2022-09-26T09:53:55.208Z,12.19
2022-09-26T09:59:12.472Z,12.11
2022-09-26T10:04:37.771Z,12.08
2022-09-26T10:09:42.129Z,12.09
2022-09-26T10:15:06.615Z,12.14
2022-09-26T10:20:42.232Z,12.06
2022-09-26T10:25:49.580Z,12.02
2022-09-26T10:30:55.464Z,11.94
2022-09-26T10:36:10.859Z,11.99
2022-09-26T10:41:24.509Z,11.91
2022-09-26T10:46:30.235Z,11.79
2022-09-26T10:52:04.479Z,11.95
2022-09-26T10:57:09.479Z,11.84
2022-09-26T11:02:19.909Z,11.95
2022-09-26T11:07:26.887Z,12.04
2022-09-26T11:12:59.875Z,12.20
2022-09-26T11:18:03.161Z,12.19
2022-09-26T11:23:14.561Z,12.14
2022-09-26T11:28:23.742Z,12.06
2022-09-26T11:33:47.179Z,12.07
2022-09-26T11:39:42.138Z,12.18
2022-09-26T11:44:56.776Z,12.15
2022-09-26T11:50:27.070Z,12.34
2022-09-26T11:55:57.264Z,12.20
2022-09-26T12:01:10.331Z,12.32
2022-09-26T12:06:20.983Z,12.19
2022-09-26T12:11:32.724Z,12.30
2022-09-26T12:16:42.309Z,12.32
2022-09-26T12:22:06.173Z,12.29
2022-09-26T12:27:16.271Z,12.27
2022-09-26T12:32:33.864Z,12.16
2022-09-26T12:37:52.831Z,12.11
2022-09-26T12:43:28.033Z,12.26
2022-09-26T12:48:38.625Z,12.45
2022-09-26T12:54:04.756Z,12.51
2022-09-26T12:59:19.487Z,12.51
2022-09-26T13:04:44.310Z,12.77
2022-09-26T13:10:08.876Z,12.83
2022-09-26T13:15:23.055Z,12.84
2022-09-26T13:20:29.736Z,12.91
2022-09-26T13:25:35.631Z,12.84
2022-09-26T13:30:42.958Z,12.89
2022-09-26T13:35:47.112Z,13.02
2022-09-26T13:40:54.823Z,13.03
2022-09-26T13:46:03.553Z,13.05
2022-09-26T13:51:11.132Z,13.07
2022-09-26T13:56:50.891Z,13.01
2022-09-26T14:02:17.975Z,13.03
2022-09-26T14:07:41.690Z,12.82
2022-09-26T14:12:56.886Z,12.62
2022-09-26T14:18:27.712Z,12.68
2022-09-26T14:23:43.108Z,12.48
2022-09-26T14:28:53.576Z,12.40
2022-09-26T14:34:16.448Z,12.41
2022-09-26T14:39:38.702Z,12.43
2022-09-26T14:44:49.140Z,12.41
2022-09-26T14:50:14.867Z,12.46
2022-09-26T14:55:19.190Z,12.43
2022-09-26T15:00:37.210Z,12.50
2022-09-26T15:05:43.225Z,12.35
2022-09-26T15:10:46.563Z,12.32
2022-09-26T15:15:53.169Z,12.24
2022-09-26T15:21:04.214Z,12.19
2022-09-26T15:26:07.375Z,12.05
2022-09-26T15:31:20.954Z,12.10
2022-09-26T15:36:29.119Z,11.99
2022-09-26T15:41:49.396Z,12.00
2022-09-26T15:46:52.190Z,11.97
2022-09-26T15:51:56.912Z,11.93
2022-09-26T15:57:02.004Z,11.94
2022-09-26T16:02:04.930Z,11.84
2022-09-26T16:07:18.938Z,11.75
2022-09-26T16:12:23.555Z,11.74
2022-09-26T16:17:28.834Z,11.76
2022-09-26T16:22:40.320Z,11.64
2022-09-26T16:27:43.689Z,11.62
2022-09-26T16:32:46.288Z,11.58
2022-09-26T16:37:59.424Z,11.52
2022-09-26T16:43:03.600Z,11.47
2022-09-26T16:48:06.411Z,11.40
2022-09-26T16:53:11.830Z,11.45
2022-09-26T16:58:15.927Z,11.37
2022-09-26T17:03:22.821Z,11.31
2022-09-26T17:08:27.908Z,11.20
2022-09-26T17:13:33.045Z,11.16
2022-09-26T17:18:39.565Z,11.17
2022-09-26T17:23:43.366Z,11.17
2022-09-26T17:28:46.096Z,11.16
2022-09-26T17:33:51.348Z,11.14
2022-09-26T17:38:59.116Z,11.15
2022-09-26T17:44:01.702Z,11.14
2022-09-26T17:49:06.493Z,11.11
2022-09-26T17:54:15.991Z,11.12
2022-09-26T17:59:23.207Z,11.05
2022-09-26T18:04:28.193Z,11.00
2022-09-26T18:09:34.089Z,10.93
2022-09-26T18:14:38.613Z,10.92
2022-09-26T18:19:43.625Z,10.79
2022-09-26T18:24:50.724Z,10.80
2022-09-26T18:29:53.510Z,10.78
2022-09-26T18:34:56.137Z,10.72
2022-09-26T18:40:03.785Z,10.74
2022-09-26T18:45:08.547Z,10.68
2022-09-26T18:50:20.697Z,10.64
2022-09-26T18:55:44.081Z,10.69
2022-09-26T19:00:48.542Z,10.69
2022-09-26T19:05:51.742Z,10.62
2022-09-26T19:10:55.904Z,10.64
2022-09-26T19:15:58.545Z,10.59
2022-09-26T19:21:05.344Z,10.57
2022-09-26T19:26:13.615Z,10.56
2022-09-26T19:31:16.399Z,10.52
2022-09-26T19:36:19.496Z,10.50
2022-09-26T19:41:23.556Z,10.49
2022-09-26T19:46:28.179Z,10.55
2022-09-26T19:51:30.947Z,10.49
2022-09-26T19:56:35.232Z,10.52
2022-09-26T20:01:38.554Z,10.53
2022-09-26T20:06:41.215Z,10.51
2022-09-26T20:11:45.790Z,10.51
2022-09-26T20:16:49.789Z,10.54
2022-09-26T20:21:52.404Z,10.55
2022-09-26T20:26:56.420Z,10.55
2022-09-26T20:32:00.949Z,10.46
2022-09-26T20:37:03.970Z,10.53
2022-09-26T20:42:08.770Z,10.50
2022-09-26T20:47:14.461Z,10.49
2022-09-26T20:52:19.618Z,10.54
2022-09-26T20:57:23.776Z,10.58
2022-09-26T21:02:28.838Z,10.56
2022-09-26T21:07:32.364Z,10.48
2022-09-26T21:12:36.313Z,10.46
2022-09-26T21:17:39.012Z,10.43
2022-09-26T21:22:41.631Z,10.50
2022-09-26T21:27:45.906Z,10.51
2022-09-26T21:32:49.879Z,10.57
2022-09-26T21:37:53.818Z,10.58
2022-09-26T21:43:07.249Z,10.53
2022-09-26T21:48:09.965Z,10.55
2022-09-26T21:53:16.367Z,10.67
2022-09-26T21:58:20.707Z,10.57
2022-09-26T22:03:23.319Z,10.59
2022-09-26T22:08:25.911Z,10.55
2022-09-26T22:13:29.870Z,10.47
2022-09-26T22:18:33.958Z,10.56
2022-09-26T22:23:36.767Z,10.58
2022-09-26T22:28:40.748Z,10.65
2022-09-26T22:33:43.444Z,10.66
2022-09-26T22:38:46.243Z,10.57
2022-09-26T22:43:50.169Z,10.65
2022-09-26T22:48:52.764Z,10.63
2022-09-26T22:53:55.521Z,10.61
2022-09-26T22:58:59.464Z,10.69
2022-09-26T23:04:02.491Z,10.56
2022-09-26T23:09:05.141Z,10.58
2022-09-26T23:14:09.267Z,10.58
2022-09-26T23:19:11.932Z,10.40
2022-09-26T23:24:14.566Z,10.57
2022-09-26T23:29:18.534Z,10.57
2022-09-26T23:34:21.259Z,10.54
2022-09-26T23:39:23.862Z,10.50
2022-09-26T23:44:27.810Z,10.48
2022-09-26T23:49:30.506Z,10.45
2022-09-26T23:54:33.114Z,10.54
2022-09-26T23:59:37.065Z,10.47
